Time;durP1;ratioP1;P1;durP2;ratioP2;P2;SDS_P1;SDS_P2;PMS_P1;PMS_P2;Temp;Humidity;BMP_temperature;BMP_pressure;BME280_temperature;BME280_humidity;BME280_pressure;Samples;Min_cycle;Max_cycle;Signal;HPM_P1;HPM_P2
2023/01/20 00:01:24;;;;;;;11.43;2.53;;;;;;;3.48;100.00;100229.66;5117168;27;20536;-82
2023/01/20 00:03:53;;;;;;;13.98;3.55;;;;;;;3.79;100.00;100252.44;5108338;27;20051;-82
2023/01/20 00:06:21;;;;;;;15.38;2.40;;;;;;;3.49;100.00;100243.44;5122331;27;20123;-82
2023/01/20 00:08:51;;;;;;;11.65;3.55;;;;;;;3.54;100.00;100247.69;5113512;27;20052;-81
2023/01/20 00:11:18;;;;;;;11.98;2.72;;;;;;;3.30;100.00;100227.38;5116582;27;20059;-82
2023/01/20 00:13:45;;;;;;;11.10;2.60;;;;;;;3.69;100.00;100276.78;5115126;27;20046;-82
2023/01/20 00:16:12;;;;;;;11.82;3.08;;;;;;;3.37;100.00;100210.88;5113002;27;20054;-83
2023/01/20 00:18:40;;;;;;;13.95;2.83;;;;;;;3.16;100.00;100206.88;5126865;27;20059;-83
2023/01/20 00:21:11;;;;;;;12.60;2.95;;;;;;;3.30;100.00;100232.53;5106552;27;20385;-82
2023/01/20 00:23:38;;;;;;;14.15;3.00;;;;;;;3.63;100.00;100289.81;5112501;27;20047;-82
2023/01/20 00:26:08;;;;;;;10.23;2.55;;;;;;;3.55;100.00;100293.38;5111702;27;20039;-82
2023/01/20 00:28:35;;;;;;;12.73;2.75;;;;;;;3.51;100.00;100291.72;5105511;27;20050;-82
2023/01/20 00:31:15;;;;;;;9.95;2.53;;;;;;;3.56;100.00;100289.94;5115724;27;20047;-82
2023/01/20 00:33:42;;;;;;;13.75;2.67;;;;;;;3.36;100.00;100277.28;5117276;27;20080;-82
2023/01/20 00:36:10;;;;;;;15.45;2.95;;;;;;;3.47;100.00;100294.38;5121263;27;20403;-82
2023/01/20 00:38:37;;;;;;;12.98;5.63;;;;;;;2.97;100.00;100227.84;5127982;27;20054;-81
2023/01/20 00:41:04;;;;;;;11.98;3.13;;;;;;;3.34;100.00;100299.75;5115251;27;20046;-82
2023/01/20 00:43:31;;;;;;;15.13;2.90;;;;;;;2.96;100.00;100254.59;5118995;27;20104;-82
2023/01/20 00:45:58;;;;;;;15.02;2.38;;;;;;;3.11;100.00;100257.84;5103880;27;20066;-82
2023/01/20 00:48:24;;;;;;;14.20;3.55;;;;;;;3.06;100.00;100303.59;5127243;27;20051;-82
2023/01/20 00:50:51;;;;;;;13.00;3.25;;;;;;;3.21;100.00;100300.81;5104064;28;20051;-81
2023/01/20 00:53:18;;;;;;;15.93;3.90;;;;;;;3.20;100.00;100306.84;5122308;27;20043;-82
2023/01/20 00:55:44;;;;;;;13.15;3.42;;;;;;;2.98;100.00;100259.75;5127682;27;20071;-83
2023/01/20 00:58:11;;;;;;;16.00;4.20;;;;;;;3.46;100.00;100336.69;5110115;27;20047;-82
2023/01/20 01:00:38;;;;;;;17.90;3.15;;;;;;;3.43;100.00;100332.38;5114882;27;20043;-82
2023/01/20 01:03:05;;;;;;;14.50;4.88;;;;;;;3.05;100.00;100279.47;5109974;27;20047;-81
2023/01/20 01:05:33;;;;;;;17.50;3.97;;;;;;;3.38;100.00;100349.72;5101307;27;20054;-82
2023/01/20 01:07:59;;;;;;;14.45;3.35;;;;;;;3.41;100.00;100366.06;5110772;27;20509;-81
2023/01/20 01:10:26;;;;;;;18.08;4.15;;;;;;;2.89;100.00;100303.84;5133820;27;20469;-83
2023/01/20 01:12:53;;;;;;;20.75;3.65;;;;;;;3.23;100.00;100333.53;5114823;27;20050;-82
2023/01/20 01:15:20;;;;;;;17.50;3.53;;;;;;;3.33;100.00;100354.97;5114723;27;20103;-82
2023/01/20 01:17:46;;;;;;;23.52;3.78;;;;;;;3.23;100.00;100358.56;5129955;27;20051;-83
2023/01/20 01:20:13;;;;;;;11.57;3.78;;;;;;;3.19;100.00;100355.16;5113836;27;20108;-82
2023/01/20 01:22:40;;;;;;;11.60;2.83;;;;;;;3.09;100.00;100353.56;5115506;27;20392;-83
2023/01/20 01:25:07;;;;;;;15.93;3.22;;;;;;;3.48;100.00;100390.13;5133422;27;20047;-82
2023/01/20 01:27:34;;;;;;;20.30;3.88;;;;;;;3.35;100.00;100383.44;5114217;27;20051;-83
2023/01/20 01:30:01;;;;;;;18.02;3.30;;;;;;;3.46;100.00;100367.75;5114022;27;20051;-81
2023/01/20 01:32:27;;;;;;;16.38;3.67;;;;;;;3.42;100.00;100414.38;5114790;27;20518;-82
2023/01/20 01:34:54;;;;;;;12.70;2.97;;;;;;;3.29;100.00;100391.25;5115678;27;20050;-81
2023/01/20 01:37:21;;;;;;;13.57;2.50;;;;;;;2.99;100.00;100370.94;5114279;27;20045;-82
2023/01/20 01:39:48;;;;;;;15.13;2.63;;;;;;;3.12;100.00;100417.34;5134640;27;20054;-82
2023/01/20 01:42:17;;;;;;;8.68;2.42;;;;;;;3.31;100.00;100443.84;5115795;27;20055;-82
2023/01/20 01:45:09;;;;;;;14.82;2.97;;;;;;;3.35;100.00;100459.31;5134223;27;20070;-82
2023/01/20 01:47:41;;;;;;;11.40;2.53;;;;;;;3.41;100.00;100466.16;5113704;27;20475;-82
2023/01/20 01:50:13;;;;;;;12.23;2.80;;;;;;;3.29;100.00;100453.34;5105719;28;20399;-82
2023/01/20 01:52:44;;;;;;;11.02;2.75;;;;;;;3.04;100.00;100426.03;5111306;27;20051;-82
2023/01/20 01:55:12;;;;;;;13.07;3.00;;;;;;;3.08;100.00;100441.53;5115549;28;20047;-81
2023/01/20 01:57:40;;;;;;;13.95;2.60;;;;;;;2.84;100.00;100441.78;5131716;27;20096;-82
2023/01/20 02:00:09;;;;;;;11.55;3.28;;;;;;;2.82;100.00;100463.38;5115488;28;20043;-82
2023/01/20 02:02:37;;;;;;;12.73;2.80;;;;;;;2.70;100.00;100441.06;5111496;28;20100;-81
2023/01/20 02:05:04;;;;;;;12.75;2.92;;;;;;;2.62;100.00;100423.06;5111930;28;20051;-82
2023/01/20 02:07:33;;;;;;;14.00;3.13;;;;;;;2.59;100.00;100424.81;5113901;28;20110;-82
2023/01/20 02:10:00;;;;;;;14.13;3.78;;;;;;;2.81;100.00;100449.56;5110249;28;20044;-83
2023/01/20 02:12:28;;;;;;;15.25;3.25;;;;;;;2.61;100.00;100444.59;5100295;28;20477;-82
2023/01/20 02:14:58;;;;;;;13.85;3.13;;;;;;;2.38;100.00;100412.94;5115741;27;20096;-82
2023/01/20 02:17:44;;;;;;;10.82;3.08;;;;;;;3.03;100.00;100498.50;5108226;28;20058;-82
2023/01/20 02:20:48;;;;;;;11.93;2.90;;;;;;;3.01;100.00;100501.09;5135791;27;20043;-82
2023/01/20 02:23:47;;;;;;;12.93;4.40;;;;;;;2.95;100.00;100506.31;5116905;27;20054;-82
2023/01/20 02:26:34;;;;;;;21.67;3.63;;;;;;;3.00;100.00;100507.13;5096717;27;20460;-82
2023/01/20 02:29:07;;;;;;;18.73;3.15;;;;;;;2.98;100.00;100518.38;5116693;28;20396;-82
2023/01/20 02:31:58;;;;;;;19.35;3.40;;;;;;;3.00;100.00;100526.97;5109695;28;20055;-82
2023/01/20 02:34:28;;;;;;;12.60;2.92;;;;;;;3.11;100.00;100506.19;5119168;27;20062;-82
2023/01/20 02:37:04;;;;;;;14.75;3.08;;;;;;;3.08;100.00;100527.78;5109824;28;20044;-82
2023/01/20 02:39:51;;;;;;;19.00;4.40;;;;;;;2.68;100.00;100445.41;5132230;27;20393;-82
2023/01/20 02:42:23;;;;;;;13.20;2.83;;;;;;;3.21;100.00;100531.94;5131933;27;20051;-82
2023/01/20 02:45:07;;;;;;;13.55;3.28;;;;;;;3.23;100.00;100542.28;5120099;27;20051;-82
2023/01/20 02:47:46;;;;;;;15.35;3.28;;;;;;;3.00;100.00;100534.75;5118814;27;20048;-84
2023/01/20 02:50:31;;;;;;;17.52;3.38;;;;;;;2.68;100.00;100484.19;5138126;27;20050;-83
2023/01/20 02:53:01;;;;;;;15.65;3.65;;;;;;;3.21;100.00;100554.38;5108288;28;20040;-83
2023/01/20 02:55:31;;;;;;;13.07;2.95;;;;;;;2.98;100.00;100565.78;5100003;28;20048;-82
2023/01/20 02:58:07;;;;;;;14.77;3.13;;;;;;;2.78;100.00;100505.63;5112214;28;20054;-83
2023/01/20 03:00:43;;;;;;;12.50;2.92;;;;;;;2.62;100.00;100516.13;5129054;27;20052;-83
2023/01/20 03:03:14;;;;;;;14.40;3.70;;;;;;;2.60;100.00;100502.34;5137586;27;20062;-82
2023/01/20 03:05:53;;;;;;;14.45;2.97;;;;;;;2.92;100.00;100560.69;5118903;27;20043;-83
2023/01/20 03:08:23;;;;;;;11.98;4.22;;;;;;;2.94;100.00;100564.13;5114692;28;20138;-82
2023/01/20 03:10:53;;;;;;;18.40;2.75;;;;;;;2.76;100.00;100539.28;5128320;27;20043;-83
2023/01/20 03:13:27;;;;;;;18.02;3.40;;;;;;;3.00;100.00;100600.25;5114746;28;20373;-83
2023/01/20 03:15:58;;;;;;;12.65;2.85;;;;;;;2.68;100.00;100522.13;5129972;27;20054;-82
2023/01/20 03:18:28;;;;;;;19.23;3.45;;;;;;;2.71;100.00;100543.63;5131991;27;20074;-82
2023/01/20 03:20:58;;;;;;;14.10;3.47;;;;;;;2.61;100.00;100529.91;5115225;28;20043;-82
2023/01/20 03:23:29;;;;;;;12.38;2.70;;;;;;;2.73;100.00;100552.22;5134291;27;20476;-82
2023/01/20 03:25:57;;;;;;;11.68;2.50;;;;;;;2.59;100.00;100547.16;5114758;28;20055;-83
2023/01/20 03:28:24;;;;;;;13.85;3.00;;;;;;;2.33;100.00;100510.31;5132253;27;20070;-82
2023/01/20 03:30:54;;;;;;;17.95;3.80;;;;;;;2.77;100.00;100574.59;5136504;27;20054;-81
2023/01/20 03:33:22;;;;;;;13.35;2.85;;;;;;;2.78;100.00;100585.78;5117324;27;20135;-83
2023/01/20 03:35:49;;;;;;;14.88;3.10;;;;;;;2.47;100.00;100542.94;5114952;27;20128;-82
2023/01/20 03:38:16;;;;;;;13.30;3.13;;;;;;;2.66;100.00;100577.25;5113501;27;20052;-82
2023/01/20 03:41:01;;;;;;;11.43;3.25;;;;;;;2.32;100.00;100537.88;5118088;27;20050;-83
2023/01/20 03:43:38;;;;;;;12.95;2.90;;;;;;;2.81;100.00;100619.38;5118331;27;20055;-82
2023/01/20 03:46:14;;;;;;;19.77;4.10;;;;;;;2.61;100.00;100584.19;5114808;28;20055;-82
2023/01/20 03:48:52;;;;;;;15.65;3.35;;;;;;;2.97;100.00;100641.66;5113122;28;20067;-82
2023/01/20 03:51:28;;;;;;;21.38;3.30;;;;;;;2.87;100.00;100626.22;5116825;27;20039;-82
2023/01/20 03:54:00;;;;;;;17.13;3.30;;;;;;;2.87;100.00;100624.53;5117537;27;20043;-82
2023/01/20 03:56:51;;;;;;;16.02;3.22;;;;;;;2.81;100.00;100621.97;5117065;27;20053;-82
2023/01/20 03:59:20;;;;;;;16.02;2.92;;;;;;;2.80;100.00;100628.03;5135947;27;20055;-82
2023/01/20 04:01:48;;;;;;;9.35;2.67;;;;;;;2.63;100.00;100604.84;5117257;27;20047;-82
2023/01/20 04:04:17;;;;;;;12.77;3.22;;;;;;;2.95;100.00;100647.72;5117319;27;20103;-83
2023/01/20 04:06:46;;;;;;;13.07;2.83;;;;;;;2.76;100.00;100634.94;5115407;27;20050;-83
2023/01/20 04:09:19;;;;;;;11.05;3.08;;;;;;;2.85;100.00;100639.16;5113629;28;20040;-82
2023/01/20 04:11:45;;;;;;;16.70;3.30;;;;;;;2.55;100.00;100593.69;5123282;27;20047;-82
2023/01/20 04:14:12;;;;;;;13.07;2.83;;;;;;;2.56;100.00;100619.53;5117138;27;20047;-83
2023/01/20 04:16:39;;;;;;;11.95;2.65;;;;;;;2.56;100.00;100592.84;5134998;27;20039;-82
2023/01/20 04:19:06;;;;;;;15.82;3.58;;;;;;;2.43;100.00;100602.41;5116957;27;20068;-83
2023/01/20 04:21:37;;;;;;;14.40;3.20;;;;;;;2.84;100.00;100663.31;5106278;28;20044;-82
2023/01/20 04:24:13;;;;;;;13.93;3.00;;;;;;;2.82;100.00;100663.31;5113363;27;20051;-83
2023/01/20 04:26:40;;;;;;;19.73;4.05;;;;;;;2.50;100.00;100618.72;5105504;27;20109;-83
2023/01/20 04:29:07;;;;;;;14.02;3.42;;;;;;;2.41;100.00;100611.91;5102544;27;20047;-82
2023/01/20 04:31:38;;;;;;;14.65;3.42;;;;;;;2.68;100.00;100678.06;5107602;28;20077;-83
2023/01/20 04:34:06;;;;;;;15.70;3.47;;;;;;;2.75;100.00;100672.00;5114066;28;20047;-83
2023/01/20 04:36:33;;;;;;;13.13;3.70;;;;;;;2.22;100.00;100604.25;5114838;27;20517;-82
2023/01/20 04:39:00;;;;;;;11.50;3.53;;;;;;;2.39;100.00;100619.66;5116986;27;20047;-83
2023/01/20 04:41:26;;;;;;;14.05;3.38;;;;;;;2.38;100.00;100623.09;5135156;27;20046;-83
2023/01/20 04:43:53;;;;;;;12.20;2.97;;;;;;;2.52;100.00;100660.94;5116304;27;20047;-83
2023/01/20 04:46:20;;;;;;;18.33;3.17;;;;;;;2.62;100.00;100678.97;5118850;27;20051;-82
2023/01/20 04:48:47;;;;;;;17.35;3.38;;;;;;;2.35;100.00;100628.28;5134978;27;20043;-83
2023/01/20 04:51:14;;;;;;;13.00;3.15;;;;;;;2.45;100.00;100657.53;5115978;27;20043;-84
2023/01/20 04:53:41;;;;;;;13.80;3.35;;;;;;;2.33;100.00;100657.59;5134693;27;20057;-83
2023/01/20 04:56:12;;;;;;;22.35;3.83;;;;;;;2.33;100.00;100642.09;5117098;27;20043;-83
2023/01/20 04:58:40;;;;;;;11.48;2.83;;;;;;;2.11;100.00;100621.53;5133477;27;20043;-83
2023/01/20 05:01:07;;;;;;;12.05;3.22;;;;;;;2.65;100.00;100703.94;5134637;27;20046;-83
2023/01/20 05:03:34;;;;;;;12.80;2.97;;;;;;;2.35;100.00;100653.28;5104051;28;20088;-84
2023/01/20 05:06:01;;;;;;;14.35;3.35;;;;;;;2.38;100.00;100672.19;5125883;27;20055;-84
2023/01/20 05:08:28;;;;;;;20.92;4.57;;;;;;;2.54;100.00;100708.31;5133378;27;20043;-83
2023/01/20 05:10:54;;;;;;;18.23;3.38;;;;;;;2.26;100.00;100678.28;5116419;27;20057;-83
2023/01/20 05:13:21;;;;;;;14.35;3.05;;;;;;;2.30;100.00;100673.94;5116541;27;20518;-83
2023/01/20 05:15:48;;;;;;;15.65;2.38;;;;;;;2.25;100.00;100667.97;5116836;27;20564;-83
2023/01/20 05:18:15;;;;;;;16.75;3.30;;;;;;;2.51;100.00;100716.94;5114209;27;20043;-83
2023/01/20 05:20:44;;;;;;;20.05;3.53;;;;;;;2.60;100.00;100724.66;5116203;27;20047;-82
2023/01/20 05:23:11;;;;;;;17.63;2.35;;;;;;;2.23;100.00;100698.97;5116142;27;20059;-82
2023/01/20 05:25:38;;;;;;;14.55;3.00;;;;;;;2.29;100.00;100703.25;5133759;27;20043;-82
2023/01/20 05:28:05;;;;;;;15.15;3.22;;;;;;;2.14;100.00;100687.81;5132970;27;20150;-81
2023/01/20 05:30:32;;;;;;;16.45;3.55;;;;;;;2.42;100.00;100727.31;5133032;27;20058;-82
2023/01/20 05:32:59;;;;;;;12.02;3.50;;;;;;;2.16;100.00;100689.53;5133853;27;20058;-81
2023/01/20 05:35:25;;;;;;;23.35;4.05;;;;;;;2.09;100.00;100690.44;5133548;27;20042;-82
2023/01/20 05:37:53;;;;;;;10.65;2.85;;;;;;;2.66;100.00;100772.88;5114417;27;20051;-82
2023/01/20 05:40:20;;;;;;;18.73;3.58;;;;;;;2.28;100.00;100730.81;5101220;27;20055;-81
2023/01/20 05:42:47;;;;;;;16.25;2.67;;;;;;;2.46;100.00;100753.16;5108410;27;20047;-82
2023/01/20 05:45:14;;;;;;;13.82;2.53;;;;;;;2.51;100.00;100778.97;5115507;28;20039;-82
2023/01/20 05:47:42;;;;;;;17.20;3.33;;;;;;;2.09;100.00;100736.91;5111681;28;20054;-82
2023/01/20 05:50:09;;;;;;;14.38;3.08;;;;;;;2.37;100.00;100757.47;5130352;27;20039;-82
2023/01/20 05:52:36;;;;;;;17.13;3.28;;;;;;;2.13;100.00;100725.72;5111438;28;20430;-81
2023/01/20 05:55:04;;;;;;;19.60;3.60;;;;;;;2.07;100.00;100724.00;5104877;28;20062;-81
2023/01/20 05:57:30;;;;;;;12.60;4.00;;;;;;;2.38;100.00;100761.78;5132531;27;20096;-82
2023/01/20 05:59:57;;;;;;;15.18;3.22;;;;;;;2.34;100.00;100762.66;5115218;28;20043;-82
2023/01/20 06:02:24;;;;;;;23.33;3.38;;;;;;;2.13;100.00;100750.69;5115333;28;20059;-82
2023/01/20 06:04:51;;;;;;;18.98;5.07;;;;;;;2.27;100.00;100754.94;5133126;28;20100;-82
2023/01/20 06:07:17;;;;;;;14.88;3.33;;;;;;;2.07;100.00;100730.88;5132748;28;20770;-82
2023/01/20 06:09:44;;;;;;;17.67;3.55;;;;;;;2.43;100.00;100794.50;5133528;28;20054;-81
2023/01/20 06:12:11;;;;;;;16.50;3.05;;;;;;;2.40;100.00;100784.16;5115359;28;20525;-82
2023/01/20 06:14:38;;;;;;;17.63;4.78;;;;;;;2.11;100.00;100736.88;5133257;28;20051;-82
2023/01/20 06:17:04;;;;;;;19.85;2.95;;;;;;;2.31;100.00;100778.19;5130294;28;20055;-82
2023/01/20 06:19:31;;;;;;;12.05;2.67;;;;;;;2.61;100.00;100822.00;5114987;28;20051;-83
2023/01/20 06:21:58;;;;;;;9.43;2.58;;;;;;;2.58;100.00;100813.41;5109088;28;20039;-83
2023/01/20 06:24:24;;;;;;;14.15;2.80;;;;;;;2.29;100.00;100796.28;5114178;28;20044;-82
2023/01/20 06:26:51;;;;;;;16.25;3.45;;;;;;;2.39;100.00;100797.09;5108574;28;20051;-83
2023/01/20 06:29:18;;;;;;;19.60;3.40;;;;;;;2.50;100.00;100816.03;5131984;28;20054;-83
2023/01/20 06:31:46;;;;;;;13.82;3.03;;;;;;;2.44;100.00;100811.75;5122377;28;20050;-82
2023/01/20 06:34:13;;;;;;;16.08;3.33;;;;;;;2.52;100.00;100842.72;5113351;28;20142;-85
2023/01/20 06:36:39;;;;;;;14.73;3.03;;;;;;;2.39;100.00;100816.06;5120301;28;20051;-84
2023/01/20 06:39:06;;;;;;;14.15;3.58;;;;;;;2.38;100.00;100827.25;5115388;28;20058;-84
2023/01/20 06:41:33;;;;;;;14.48;3.25;;;;;;;2.32;100.00;100829.88;5113738;28;20044;-84
2023/01/20 06:44:00;;;;;;;19.30;3.00;;;;;;;2.27;100.00;100821.25;5134518;28;20050;-84
2023/01/20 06:46:26;;;;;;;13.75;3.13;;;;;;;2.18;100.00;100798.88;5109331;28;20130;-84
2023/01/20 06:48:59;;;;;;;12.75;2.50;;;;;;;2.06;100.00;100801.50;5115805;28;20525;-84
2023/01/20 06:51:28;;;;;;;11.32;2.80;;;;;;;2.16;100.00;100833.31;5114963;28;20043;-83
2023/01/20 06:53:55;;;;;;;11.38;2.53;;;;;;;2.53;100.00;100884.94;5125110;28;20051;-82
2023/01/20 06:56:22;;;;;;;14.13;3.08;;;;;;;2.59;100.00;100918.53;5110798;28;20048;-84
2023/01/20 06:58:49;;;;;;;11.75;2.90;;;;;;;2.47;100.00;100893.56;5100382;28;20078;-83
2023/01/20 07:01:28;;;;;;;14.63;3.08;;;;;;;2.00;100.00;100830.78;5114859;27;20495;-83
2023/01/20 07:03:55;;;;;;;16.30;3.80;;;;;;;2.54;100.00;100890.09;5116772;27;20051;-83
2023/01/20 07:06:25;;;;;;;22.38;3.58;;;;;;;2.24;100.00;100863.44;5116278;27;20059;-84
2023/01/20 07:08:52;;;;;;;11.30;2.55;;;;;;;2.41;100.00;100894.44;5123716;27;20630;-84
2023/01/20 07:11:19;;;;;;;25.02;3.53;;;;;;;2.23;100.00;100881.53;5125617;27;20046;-83
2023/01/20 07:13:45;;;;;;;14.05;3.03;;;;;;;2.15;100.00;100880.69;5137681;27;20047;-84
2023/01/20 07:16:12;;;;;;;17.92;3.15;;;;;;;2.36;100.00;100927.19;5115317;27;20051;-83
2023/01/20 07:18:43;;;;;;;15.82;2.92;;;;;;;2.44;100.00;100922.00;5117141;27;20073;-83
2023/01/20 07:21:10;;;;;;;17.48;3.03;;;;;;;2.47;100.00;100919.41;5118683;27;20058;-84
2023/01/20 07:23:37;;;;;;;14.05;3.10;;;;;;;2.26;100.00;100895.31;5137223;27;20059;-84
2023/01/20 07:26:07;;;;;;;15.43;2.85;;;;;;;2.38;100.00;100924.59;5123298;27;20039;-84
2023/01/20 07:28:35;;;;;;;16.00;2.33;;;;;;;2.53;100.00;100947.81;5127795;27;20051;-83
2023/01/20 07:31:07;;;;;;;17.35;2.88;;;;;;;2.23;100.00;100925.44;5115235;28;20051;-84
2023/01/20 07:33:34;;;;;;;16.83;3.17;;;;;;;2.32;100.00;100940.09;5114092;27;20051;-83
2023/01/20 07:36:01;;;;;;;16.45;3.17;;;;;;;2.04;100.00;100904.78;5107713;27;20058;-83
2023/01/20 07:38:28;;;;;;;14.88;3.00;;;;;;;2.23;100.00;100934.09;5110695;27;20055;-84
2023/01/20 07:41:00;;;;;;;20.30;3.00;;;;;;;2.48;100.00;100972.84;5120409;27;20058;-84
2023/01/20 07:43:30;;;;;;;13.13;2.83;;;;;;;2.02;100.00;100891.03;5132778;27;20131;-84
2023/01/20 07:46:02;;;;;;;12.63;3.20;;;;;;;2.21;100.00;100945.25;5118608;27;20047;-84
2023/01/20 07:48:31;;;;;;;14.25;3.08;;;;;;;2.25;100.00;100918.59;5113942;28;20504;-84
2023/01/20 07:51:01;;;;;;;14.23;3.40;;;;;;;2.56;100.00;100983.16;5131561;27;20055;-83
2023/01/20 07:53:29;;;;;;;16.27;3.00;;;;;;;2.22;100.00;100937.50;5117275;27;20114;-84
2023/01/20 07:56:00;;;;;;;13.73;3.55;;;;;;;2.22;100.00;100958.19;5114853;28;20048;-84
2023/01/20 07:58:28;;;;;;;15.90;3.17;;;;;;;2.17;100.00;100965.06;5134246;27;20047;-84
2023/01/20 08:00:55;;;;;;;17.95;2.38;;;;;;;2.54;100.00;101009.00;5136793;27;20055;-84
2023/01/20 08:03:22;;;;;;;12.13;2.88;;;;;;;2.24;100.00;100979.72;5115163;28;20127;-84
2023/01/20 08:05:52;;;;;;;17.58;4.05;;;;;;;2.03;100.00;100964.19;5098337;28;20047;-83
2023/01/20 08:08:19;;;;;;;13.00;3.13;;;;;;;2.17;100.00;100988.31;5114335;27;20044;-84
2023/01/20 08:10:52;;;;;;;13.88;3.22;;;;;;;2.16;100.00;100986.63;5135666;27;20051;-83
2023/01/20 08:13:19;;;;;;;11.63;2.60;;;;;;;1.98;100.00;100968.50;5122732;27;20044;-84
2023/01/20 08:15:46;;;;;;;12.88;2.90;;;;;;;2.20;100.00;101008.16;5118238;27;20059;-84
2023/01/20 08:18:13;;;;;;;13.65;2.40;;;;;;;2.34;100.00;101037.44;5122820;27;20050;-83
2023/01/20 08:20:40;;;;;;;18.65;3.20;;;;;;;2.45;100.00;101061.56;5133021;27;20507;-83
2023/01/20 08:23:06;;;;;;;12.52;2.85;;;;;;;2.17;100.00;101021.06;5115014;27;20043;-83
2023/01/20 08:25:33;;;;;;;23.13;3.10;;;;;;;2.20;100.00;101045.16;5101250;27;20059;-84
2023/01/20 08:28:00;;;;;;;13.85;3.60;;;;;;;1.80;100.00;101003.75;5131566;27;20061;-84
2023/01/20 08:30:28;;;;;;;17.30;3.58;;;;;;;2.25;100.00;101058.97;5113869;27;20492;-83
2023/01/20 08:32:55;;;;;;;14.70;3.45;;;;;;;2.15;100.00;101058.94;5113948;27;20096;-84
2023/01/20 08:35:22;;;;;;;17.65;2.80;;;;;;;1.85;100.00;101017.53;5113609;27;20059;-83
2023/01/20 08:37:48;;;;;;;11.95;2.58;;;;;;;1.99;100.00;101020.16;5111547;27;20047;-83
2023/01/20 08:40:15;;;;;;;10.65;2.90;;;;;;;2.00;100.00;101031.34;5112671;27;20131;-83
2023/01/20 08:42:42;;;;;;;18.27;3.08;;;;;;;1.90;100.00;101013.25;5109927;28;20050;-84
2023/01/20 08:45:09;;;;;;;19.20;2.83;;;;;;;2.13;100.00;101056.34;5122103;27;20069;-84
2023/01/20 08:47:38;;;;;;;14.25;3.58;;;;;;;2.28;100.00;101095.16;5112274;27;20047;-84
2023/01/20 08:50:06;;;;;;;15.13;3.10;;;;;;;2.21;100.00;101072.75;5108991;27;20043;-84
2023/01/20 08:52:33;;;;;;;12.30;3.38;;;;;;;1.85;100.00;101012.38;5131445;27;20683;-83
2023/01/20 09:07:16;;;;;;;15.25;2.92;;;;;;;2.80;100.00;101086.59;5118336;27;20844;-86
2023/01/20 09:09:43;;;;;;;17.13;3.33;;;;;;;2.82;100.00;101078.84;5124502;28;20051;-86
2023/01/20 09:12:10;;;;;;;23.48;4.93;;;;;;;2.93;100.00;101074.50;5126069;27;20036;-85
2023/01/20 09:14:38;;;;;;;21.90;2.85;;;;;;;2.95;100.00;101069.34;5125917;28;20051;-86
2023/01/20 09:17:05;;;;;;;15.13;2.90;;;;;;;2.89;100.00;101098.66;5123458;27;20047;-86
2023/01/20 09:19:31;;;;;;;14.32;3.08;;;;;;;2.79;100.00;101118.47;5121770;28;20043;-86
2023/01/20 09:21:58;;;;;;;16.15;3.50;;;;;;;2.41;100.00;101077.09;5126299;28;20051;-85
2023/01/20 09:24:25;;;;;;;22.90;3.72;;;;;;;2.59;100.00;101113.28;5127627;28;20050;-83
2023/01/20 09:26:52;;;;;;;17.65;3.80;;;;;;;2.33;100.00;101064.13;5129625;27;20046;-85
2023/01/20 09:29:20;;;;;;;12.77;2.90;;;;;;;2.85;100.00;101154.69;5129590;28;20389;-86
2023/01/20 09:31:51;;;;;;;11.05;3.90;;;;;;;2.96;100.00;101154.69;5134401;28;20460;-84
2023/01/20 09:34:23;;;;;;;13.48;3.28;;;;;;;3.00;100.00;101160.72;5135000;28;20050;-83
2023/01/20 09:36:51;;;;;;;9.63;2.83;;;;;;;2.93;100.00;101164.19;5122854;28;20039;-84
2023/01/20 09:45:25;;;;;;;27.33;4.88;;;;;;;2.50;100.00;101074.50;5120969;27;20048;-83
2023/01/20 09:48:04;;;;;;;17.48;3.35;;;;;;;2.74;100.00;101119.31;5111115;28;20047;-84
2023/01/20 09:53:49;;;;;;;9.98;3.45;;;;;;;3.27;100.00;101187.47;5115550;28;20046;-84
2023/01/20 09:56:18;;;;;;;10.82;2.97;;;;;;;3.11;100.00;101168.50;5126000;28;20473;-84
2023/01/20 09:58:59;;;;;;;15.73;3.55;;;;;;;3.01;100.00;101155.56;5115521;28;20655;-84
2023/01/20 10:01:29;;;;;;;10.32;3.13;;;;;;;3.41;100.00;101196.94;5111965;28;20055;-83
2023/01/20 10:04:05;;;;;;;14.05;2.50;;;;;;;3.36;100.00;101205.59;5116890;28;20162;-84
2023/01/20 10:06:38;;;;;;;10.27;2.65;;;;;;;3.23;100.00;101182.28;5121526;28;20044;-84
2023/01/20 10:09:12;;;;;;;;;;;;;;;3.51;100.00;101202.13;5114582;28;20047;-83
2023/01/20 10:11:42;;;;;;;13.82;3.47;;;;;;;3.37;100.00;101159.00;5113973;28;20233;-83
2023/01/20 10:14:20;;;;;;;21.65;4.20;;;;;;;3.54;100.00;101207.28;5114563;28;20066;-83
2023/01/20 10:17:05;;;;;;;11.32;3.25;;;;;;;3.26;100.00;101168.50;5111760;28;20473;-83
2023/01/20 10:19:48;;;;;;;14.75;3.10;;;;;;;3.48;100.00;101173.66;5114349;28;20043;-84
2023/01/20 10:22:21;;;;;;;14.52;4.28;;;;;;;3.64;100.00;101218.50;5115363;28;20046;-83
2023/01/20 10:25:01;;;;;;;12.07;3.15;;;;;;;3.48;100.00;101164.16;5115349;28;20047;-84
2023/01/20 10:27:28;;;;;;;17.65;3.50;;;;;;;3.30;100.00;101149.50;5109536;28;20408;-84
2023/01/20 10:30:12;;;;;;;18.80;3.90;;;;;;;3.66;100.00;101216.78;5113772;28;20050;-83
2023/01/20 10:33:17;;;;;;;18.50;3.78;;;;;;;3.47;100.00;101177.97;5109627;28;20100;-84
2023/01/20 10:35:49;;;;;;;12.13;2.95;;;;;;;3.60;100.00;101178.81;5113665;28;20051;-84
2023/01/20 10:38:42;;;;;;;15.30;2.70;;;;;;;3.87;100.00;101234.00;5112225;28;20047;-84
2023/01/20 10:41:22;;;;;;;12.70;2.78;;;;;;;3.92;100.00;101240.06;5101210;28;20050;-84
2023/01/20 10:43:49;;;;;;;12.57;3.55;;;;;;;3.63;100.00;101209.88;5113563;28;20055;-84
2023/01/20 10:46:31;;;;;;;17.40;3.03;;;;;;;3.97;100.00;101239.16;5097599;28;20044;-83
2023/01/20 10:49:15;;;;;;;11.00;2.70;;;;;;;3.92;100.00;101217.59;5094684;28;20048;-83
2023/01/20 10:52:04;;;;;;;17.60;3.05;;;;;;;3.98;100.00;101215.00;5099111;28;20730;-85
2023/01/20 10:54:57;;;;;;;10.77;3.20;;;;;;;4.10;100.00;101250.38;5110327;28;20048;-84
2023/01/20 10:57:24;;;;;;;16.52;3.72;;;;;;;3.70;100.00;101184.81;5102471;28;20047;-84
2023/01/20 10:59:56;;;;;;;15.63;3.05;;;;;;;3.75;100.00;101216.75;5096107;28;20048;-84
2023/01/20 11:02:29;;;;;;;13.98;3.83;;;;;;;3.87;100.00;101228.84;5115051;28;20404;-84
2023/01/20 11:05:28;;;;;;;;;;;;;;;4.14;100.00;101262.47;5102548;28;20048;-85
2023/01/20 11:07:58;;;;;;;12.10;2.85;;;;;;;3.56;100.00;101190.03;5081483;28;19924;-84
2023/01/20 11:10:28;;;;;;;20.60;3.20;;;;;;;3.91;100.00;101249.56;5112669;28;20507;-83
2023/01/20 11:12:58;;;;;;;10.48;2.92;;;;;;;4.02;100.00;101244.34;5113621;28;20047;-84
2023/01/20 11:15:31;;;;;;;15.23;3.10;;;;;;;4.12;100.00;101260.72;5113133;28;20049;-83
2023/01/20 11:18:13;;;;;;;17.25;2.40;;;;;;;4.16;100.00;101268.50;5109753;28;20059;-84
2023/01/20 11:20:46;;;;;;;11.23;2.55;;;;;;;4.22;100.00;101274.53;5101071;28;20048;-83
2023/01/20 11:23:31;;;;;;;13.30;3.30;;;;;;;3.83;100.00;101225.38;5092715;28;20044;-84
2023/01/20 11:26:01;;;;;;;13.77;3.00;;;;;;;3.77;100.00;101226.28;5099791;28;20058;-84
2023/01/20 11:28:56;;;;;;;13.70;3.45;;;;;;;3.75;100.00;101203.81;5112576;28;20066;-84
2023/01/20 11:31:53;;;;;;;9.13;2.33;;;;;;;4.26;100.00;101281.44;5112861;28;20499;-83
2023/01/20 11:34:28;;;;;;;11.43;3.25;;;;;;;4.23;100.00;101289.22;5084370;28;20496;-83
2023/01/20 11:37:03;;;;;;;12.23;2.63;;;;;;;4.28;100.00;101288.31;5102242;28;20130;-83
2023/01/20 11:39:55;;;;;;;13.07;2.83;;;;;;;4.30;100.00;101286.63;5110984;28;20450;-83
2023/01/20 11:42:30;;;;;;;13.60;2.88;;;;;;;4.48;100.00;101285.69;5114178;28;20050;-83
2023/01/20 11:45:01;;;;;;;7.57;2.13;;;;;;;4.22;100.00;101235.66;5114222;28;20056;-83
2023/01/20 11:48:02;;;;;;;13.07;2.58;;;;;;;4.52;100.00;101302.09;5099367;28;20464;-83
2023/01/20 11:50:44;;;;;;;8.95;2.25;;;;;;;4.22;100.00;101248.63;5103247;28;20036;-82
2023/01/20 11:53:17;;;;;;;8.98;2.70;;;;;;;4.12;100.00;101233.06;5092273;28;20056;-83
2023/01/20 11:55:51;;;;;;;7.57;2.40;;;;;;;4.63;100.00;101315.03;5102456;28;20047;-83